Time;durP1;ratioP1;P1;durP2;ratioP2;P2;SDS_P1;SDS_P2;PMS_P1;PMS_P2;Temp;Humidity;BMP_temperature;BMP_pressure;BME280_temperature;BME280_humidity;BME280_pressure;Samples;Min_cycle;Max_cycle;Signal;HPM_P1;HPM_P2
2022/04/25 00:02:47;;;;;;;4.93;2.23;;;10.20;99.90;;;8.50;89.58;98955.47;10326854;28;97262;-80
2022/04/25 00:07:50;;;;;;;5.03;2.10;;;10.20;99.90;;;8.44;89.75;98962.31;10326444;28;98303;-79
2022/04/25 00:12:53;;;;;;;3.53;1.80;;;10.20;99.90;;;8.38;89.89;98952.47;10330816;28;98298;-79
2022/04/25 00:17:56;;;;;;;5.73;2.40;;;10.10;99.90;;;8.36;90.49;98951.03;10344096;28;96508;-79
2022/04/25 00:23:04;;;;;;;7.53;2.27;;;10.10;99.90;;;8.32;90.74;98951.34;10339397;28;96800;-79
2022/04/25 00:28:07;;;;;;;5.13;2.20;;;10.00;99.90;;;8.28;90.88;98951.91;10378945;28;96492;-79
2022/04/25 00:33:10;;;;;;;7.73;2.50;;;10.00;99.90;;;8.23;90.85;98949.81;10334839;28;98715;-78
2022/04/25 00:38:13;;;;;;;5.63;2.37;;;10.00;99.90;;;8.17;90.93;98939.13;10325660;28;99001;-79
2022/04/25 00:43:16;;;;;;;6.73;2.20;;;9.90;99.90;;;8.10;90.91;98933.75;10327060;28;96539;-79
2022/04/25 00:48:19;;;;;;;6.03;2.23;;;9.90;99.90;;;8.05;91.16;98941.41;10361582;28;97451;-79
2022/04/25 00:53:22;;;;;;;7.17;1.80;;;9.80;99.90;;;7.99;91.08;98947.44;10346575;28;96465;-79
2022/04/25 00:58:25;;;;;;;5.13;2.00;;;9.80;99.90;;;7.85;90.80;98949.03;10307599;28;96533;-78
2022/04/25 01:03:28;;;;;;;4.03;2.20;;;9.70;99.90;;;7.73;90.88;98953.13;10322178;28;97182;-79
2022/04/25 01:08:37;;;;;;;4.20;1.90;;;9.60;99.90;;;7.63;90.84;98953.41;10343451;28;96531;-79
2022/04/25 01:13:40;;;;;;;6.70;1.97;;;9.40;99.90;;;7.54;91.19;98959.75;10376004;28;96574;-78
2022/04/25 01:18:43;;;;;;;4.87;2.40;;;9.30;99.90;;;7.54;91.51;98954.47;10317805;28;96787;-79
2022/04/25 01:29:09;;;;;;;;;;;9.30;99.90;;;7.62;92.43;98954.41;10322258;28;96972;-78
2022/04/25 01:34:12;;;;;;;9.43;3.20;;;9.30;99.90;;;7.64;92.85;98944.47;10323482;28;97377;-80
2022/04/25 01:39:15;;;;;;;7.70;1.40;;;9.30;99.90;;;7.71;93.29;98945.38;10324426;28;96640;-80
2022/04/25 01:44:18;;;;;;;4.30;1.60;;;9.40;99.90;;;7.78;93.14;98948.94;10332838;28;98767;-79
2022/04/25 01:49:21;;;;;;;3.70;1.17;;;9.40;99.90;;;7.79;92.58;98955.88;10303639;28;96609;-79
2022/04/25 01:54:27;;;;;;;3.07;1.13;;;9.40;99.90;;;7.87;92.56;98954.19;10327811;28;98884;-79
2022/04/25 01:59:31;;;;;;;2.67;1.33;;;9.50;99.90;;;7.94;92.49;98961.19;10300912;28;96504;-80
2022/04/25 02:04:34;;;;;;;5.70;1.70;;;9.60;99.90;;;7.99;92.25;98953.56;10308985;28;98923;-79
2022/04/25 02:09:38;;;;;;;5.03;2.03;;;9.60;99.90;;;8.05;92.15;98941.41;10312476;28;96453;-79
2022/04/25 02:14:42;;;;;;;5.43;1.90;;;9.70;99.90;;;8.05;92.31;98952.00;10300057;28;96601;-79
2022/04/25 02:19:46;;;;;;;4.63;1.70;;;9.70;99.90;;;8.08;92.11;98946.34;10299666;28;97624;-79
2022/04/25 02:24:48;;;;;;;5.73;1.70;;;9.70;99.90;;;8.12;92.03;98946.81;10354144;28;96642;-79
2022/04/25 02:29:57;;;;;;;7.07;2.73;;;9.80;99.90;;;8.15;92.26;98941.94;10311137;28;96638;-79
2022/04/25 02:35:00;;;;;;;5.57;2.43;;;9.80;99.90;;;8.22;92.31;98939.41;10333207;28;99070;-79
2022/04/25 02:40:03;;;;;;;6.00;2.80;;;9.90;99.90;;;8.25;92.36;98942.50;10314115;28;96561;-79
2022/04/25 02:45:07;;;;;;;9.50;3.20;;;9.90;99.90;;;8.25;92.43;98946.97;10312444;28;96510;-79
2022/04/25 02:50:10;;;;;;;6.73;3.67;;;9.90;99.90;;;8.29;92.32;98951.72;10304998;28;96935;-80
2022/04/25 02:55:13;;;;;;;8.53;4.83;;;9.90;99.90;;;8.33;92.63;98976.81;10294466;28;98807;-79
2022/04/25 03:00:16;;;;;;;11.50;5.47;;;10.00;99.90;;;8.38;92.83;99004.59;10330184;28;96882;-80
2022/04/25 03:05:19;;;;;;;10.60;5.93;;;10.10;99.90;;;8.43;93.10;99000.38;10316821;28;96857;-79
2022/04/25 03:10:22;;;;;;;10.30;6.63;;;10.10;99.90;;;8.50;93.39;99000.47;10302298;28;96513;-80
2022/04/25 03:15:25;;;;;;;11.40;6.57;;;10.10;99.90;;;8.56;93.81;98987.31;10303922;28;98457;-80
2022/04/25 03:20:28;;;;;;;14.20;6.67;;;10.20;99.90;;;8.65;93.90;98992.53;10303952;28;97549;-80
2022/04/25 03:25:32;;;;;;;4.90;1.60;;;10.30;99.90;;;8.80;93.04;98983.53;10292993;28;96750;-80
2022/04/25 03:30:35;;;;;;;5.37;1.20;;;10.40;99.90;;;9.03;90.93;98975.44;10320512;28;96953;-80
2022/04/25 03:35:39;;;;;;;7.27;3.90;;;10.60;99.90;;;9.21;88.90;98982.97;10299693;28;97573;-79
2022/04/25 03:40:44;;;;;;;8.43;4.90;;;10.70;99.90;;;9.13;88.99;99004.31;10295705;28;98636;-80
2022/04/25 03:45:47;;;;;;;10.17;5.57;;;10.70;99.90;;;9.02;89.63;99010.09;10329362;28;96676;-79
2022/04/25 03:50:50;;;;;;;16.13;6.07;;;10.60;99.90;;;8.92;90.49;99012.19;10343638;28;96486;-79
2022/04/25 04:01:14;;;;;;;9.18;5.82;;;10.50;99.90;;;8.84;91.33;99000.72;10330403;28;98498;-80
2022/04/25 04:06:17;;;;;;;11.03;6.63;;;10.50;99.90;;;8.81;91.87;99011.66;10298081;28;96678;-79
2022/04/25 04:11:20;;;;;;;11.03;5.93;;;10.40;99.90;;;8.79;91.87;99003.09;10299113;28;96658;-79
2022/04/25 04:16:23;;;;;;;8.27;5.47;;;10.40;99.90;;;8.79;91.98;99013.69;10310941;28;97561;-79
2022/04/25 04:21:26;;;;;;;12.60;6.60;;;10.40;99.90;;;8.80;92.29;99015.31;10326731;28;97492;-79
2022/04/25 04:26:29;;;;;;;9.13;5.20;;;10.40;99.90;;;8.83;92.25;99020.28;10317472;28;97551;-79
2022/04/25 04:31:32;;;;;;;8.03;5.60;;;10.40;99.90;;;8.92;92.48;99034.22;10310571;28;98718;-79
2022/04/25 04:36:35;;;;;;;7.97;4.60;;;10.50;99.90;;;8.98;92.71;99040.59;10333192;28;96470;-79
2022/04/25 04:41:38;;;;;;;12.87;5.73;;;10.60;99.90;;;9.07;92.59;99036.84;10325300;28;97382;-79
2022/04/25 04:46:41;;;;;;;10.10;3.97;;;10.70;99.90;;;9.17;92.69;99041.84;10350436;28;96567;-79
2022/04/25 04:51:44;;;;;;;6.40;3.10;;;10.70;99.90;;;9.25;92.40;99047.03;10313143;28;97474;-79
2022/04/25 04:56:47;;;;;;;4.77;2.87;;;10.80;99.90;;;9.36;92.51;99036.78;10325684;28;97684;-79
2022/04/25 05:01:51;;;;;;;4.80;2.87;;;10.90;99.90;;;9.48;92.26;99042.41;10318993;28;97077;-79
2022/04/25 05:06:55;;;;;;;6.70;2.83;;;11.10;99.90;;;9.59;91.98;99056.97;10314429;28;96466;-79
2022/04/25 05:11:58;;;;;;;5.27;2.67;;;11.20;99.90;;;9.71;92.08;99055.44;10321549;28;96919;-78
2022/04/25 05:17:00;;;;;;;5.67;2.23;;;11.30;99.90;;;9.91;92.15;99053.81;10324398;28;97540;-79
2022/04/25 05:22:04;;;;;;;4.43;2.23;;;11.40;99.90;;;10.16;92.21;99054.22;10315420;28;96480;-79
2022/04/25 05:27:06;;;;;;;2.17;1.50;;;11.60;99.90;;;10.35;90.83;99052.72;10307203;28;96620;-78
2022/04/25 05:32:09;;;;;;;4.77;1.23;;;11.80;99.90;;;10.51;88.52;99051.63;10300393;28;96626;-79
2022/04/25 05:37:14;;;;;;;4.20;0.97;;;12.00;99.90;;;10.70;86.52;99050.09;10316954;28;97098;-79
2022/04/25 05:42:17;;;;;;;2.83;0.93;;;12.20;99.90;;;10.94;82.41;99051.44;10311960;28;97413;-78
2022/04/25 05:47:20;;;;;;;1.50;0.40;;;12.40;99.90;;;11.14;80.72;99046.19;10294331;28;96726;-78
2022/04/25 05:52:23;;;;;;;1.50;0.30;;;12.50;99.90;;;11.31;78.13;99050.13;10316784;28;96881;-80
2022/04/25 05:57:26;;;;;;;2.30;0.30;;;12.70;99.90;;;11.44;76.46;99046.66;10308961;28;96614;-81
2022/04/25 06:02:29;;;;;;;0.30;0.20;;;12.90;99.90;;;11.57;75.94;99048.53;10324642;28;96464;-80
2022/04/25 06:07:33;;;;;;;3.13;0.60;;;13.00;99.90;;;11.69;75.30;99054.91;10295084;28;96576;-80
2022/04/25 06:12:42;;;;;;;1.53;0.40;;;13.10;99.90;;;11.77;74.29;99055.53;10315127;28;96387;-80
2022/04/25 06:17:45;;;;;;;1.43;0.50;;;13.20;99.90;;;11.90;73.80;99046.75;10313580;28;98925;-79
2022/04/25 06:22:53;;;;;;;2.97;0.60;;;13.30;99.90;;;12.07;73.78;99046.38;10323127;28;97375;-79
2022/04/25 06:27:57;;;;;;;1.87;0.67;;;13.50;99.90;;;12.22;72.56;99052.28;10317762;28;98465;-80
2022/04/25 06:33:01;;;;;;;1.23;0.80;;;13.60;99.90;;;12.39;71.51;99044.69;10293412;28;96630;-80
2022/04/25 06:38:04;;;;;;;2.30;0.80;;;13.80;99.90;;;12.49;70.64;99045.91;10290788;28;96437;-80
2022/04/25 06:43:08;;;;;;;1.77;0.80;;;13.90;99.90;;;12.65;70.74;99054.47;10334589;28;96793;-79
2022/04/25 06:48:11;;;;;;;1.87;0.93;;;14.00;99.90;;;12.83;69.48;99049.28;10314245;28;96617;-80
2022/04/25 06:53:14;;;;;;;3.10;0.90;;;14.20;99.90;;;12.96;67.90;99051.91;10317964;28;96528;-80
2022/04/25 06:58:17;;;;;;;2.57;1.00;;;14.30;99.90;;;13.10;66.19;99072.16;10321710;28;96482;-81
2022/04/25 07:03:20;;;;;;;3.27;0.93;;;14.50;99.90;;;13.15;66.08;99065.38;10333272;28;96492;-80
2022/04/25 07:08:23;;;;;;;1.73;0.77;;;14.50;99.50;;;13.22;65.57;99076.88;10330953;28;96498;-80
2022/04/25 07:13:26;;;;;;;2.57;1.03;;;14.60;99.50;;;13.28;65.55;99070.69;10300626;28;96694;-81
2022/04/25 07:18:37;;;;;;;2.87;1.17;;;14.60;99.50;;;13.42;65.95;99072.25;10331686;28;96463;-80
2022/04/25 07:29:02;;;;;;;2.35;1.50;;;14.90;99.30;;;13.65;65.80;99077.84;10302688;28;96519;-81
2022/04/25 07:34:05;;;;;;;2.57;1.10;;;15.00;99.50;;;13.98;65.25;99082.19;10303993;28;96413;-81
2022/04/25 07:39:08;;;;;;;2.30;1.27;;;15.20;99.20;;;14.10;63.45;99075.09;10304211;28;96857;-81
2022/04/25 07:44:12;;;;;;;1.80;1.02;;;15.30;98.40;;;14.17;63.12;99067.84;10305783;28;96621;-81
2022/04/25 07:49:18;;;;;;;1.90;1.30;;;15.40;97.70;;;14.30;62.50;99077.59;10308266;28;96969;-80
2022/04/25 07:54:23;;;;;;;1.80;1.20;;;15.50;96.90;;;14.42;60.80;99077.69;10305566;28;96497;-80
2022/04/25 07:59:26;;;;;;;1.58;0.90;;;15.70;95.50;;;14.48;60.81;99084.03;10304206;28;96443;-82
2022/04/25 08:04:30;;;;;;;2.15;1.02;;;15.80;95.00;;;14.56;60.10;99065.03;10305265;28;97042;-80
2022/04/25 08:09:33;;;;;;;2.60;1.13;;;15.90;94.50;;;14.67;60.48;99075.81;10305245;28;97747;-81
2022/04/25 08:19:58;;;;;;;2.75;1.10;;;16.10;94.20;;;15.11;59.59;99081.09;10345399;28;97757;-80
2022/04/25 08:25:04;;;;;;;1.92;1.23;;;16.40;93.60;;;15.34;58.75;99083.06;10344808;28;96434;-81
2022/04/25 08:30:08;;;;;;;2.22;0.98;;;16.60;92.40;;;15.41;58.71;99078.44;10329130;28;97539;-81
2022/04/25 08:35:11;;;;;;;2.90;0.90;;;16.70;92.20;;;15.40;57.83;99074.94;10326690;28;98044;-81
2022/04/25 08:40:15;;;;;;;1.25;0.80;;;16.70;91.30;;;15.51;57.37;99086.75;10303408;28;96439;-83
2022/04/25 08:45:19;;;;;;;1.08;0.70;;;16.80;90.60;;;15.61;56.93;99088.91;10296975;28;96427;-80
2022/04/25 08:50:23;;;;;;;1.52;0.73;;;17.00;90.20;;;15.64;56.67;99105.34;10308151;28;96606;-80
2022/04/25 08:55:30;;;;;;;0.77;0.40;;;17.00;89.30;;;15.70;55.81;99106.28;10323851;28;96357;-81
2022/04/25 09:00:33;;;;;;;1.20;0.80;;;17.00;85.60;;;15.94;55.08;99102.66;10339718;28;97140;-82
2022/04/25 09:05:38;;;;;;;1.90;0.85;;;17.10;85.80;;;16.18;54.50;99094.66;10338487;28;96353;-80
2022/04/25 09:10:42;;;;;;;1.65;0.60;;;17.30;85.40;;;16.44;54.96;99091.56;10334692;28;96765;-81
2022/04/25 09:15:45;;;;;;;1.40;0.70;;;17.50;85.10;;;16.62;53.23;99101.34;10283209;28;96572;-81
2022/04/25 09:20:49;;;;;;;0.90;0.70;;;17.80;83.10;;;16.72;52.56;99111.50;10326061;28;96794;-81
2022/04/25 09:26:31;;;;;;;1.23;0.70;;;17.90;81.10;;;16.54;52.62;99107.03;10304513;28;96550;-81
2022/04/25 09:31:35;;;;;;;1.67;0.70;;;17.80;79.90;;;16.82;53.02;99117.09;10328468;28;96575;-81
2022/04/25 09:36:48;;;;;;;2.05;0.80;;;18.00;80.30;;;17.17;51.92;99110.88;10327723;28;97633;-81
2022/04/25 09:41:51;;;;;;;1.02;0.60;;;18.40;79.00;;;17.44;52.07;99113.81;10299389;28;96693;-81
2022/04/25 09:46:55;;;;;;;0.95;0.50;;;18.60;79.30;;;17.83;50.35;99125.63;10294793;28;96456;-80
2022/04/25 09:52:03;;;;;;;0.57;0.50;;;19.00;74.10;;;18.06;48.65;99127.38;10298676;28;97343;-81
2022/04/25 09:57:06;;;;;;;0.20;0.13;;;19.30;70.50;;;18.45;48.01;99122.88;10313227;28;97076;-81
2022/04/25 10:02:09;;;;;;;2.30;0.22;;;19.60;70.00;;;18.74;46.16;99120.94;10294069;28;96397;-82
2022/04/25 10:07:14;;;;;;;0.28;0.10;;;19.90;68.10;;;18.92;44.93;99125.22;10327378;28;96903;-82
2022/04/25 10:12:17;;;;;;;0.57;0.30;;;20.10;66.80;;;18.69;45.13;99148.59;10331234;28;96553;-82
2022/04/25 10:17:20;;;;;;;1.33;0.20;;;19.90;66.30;;;17.92;46.33;99151.84;10292333;28;96454;-81
2022/04/25 10:22:23;;;;;;;0.35;0.20;;;19.40;66.00;;;17.83;47.73;99158.69;10292397;28;96642;-82
2022/04/25 10:27:32;;;;;;;1.50;0.30;;;19.10;67.40;;;18.13;48.80;99152.22;10297406;28;96584;-81
2022/04/25 10:32:35;;;;;;;0.32;0.28;;;19.20;69.50;;;18.28;47.01;99152.47;10293075;28;96671;-80
2022/04/25 10:37:43;;;;;;;0.68;0.40;;;19.40;67.70;;;17.82;48.12;99162.44;10293144;28;96527;-80
2022/04/25 10:49:10;;;;;;;0.50;0.30;;;19.00;65.30;;;17.07;48.35;99160.59;10344329;28;96495;-80
2022/04/25 10:54:15;;;;;;;0.25;0.20;;;18.50;66.60;;;17.12;47.35;99162.56;10355917;28;96483;-82
2022/04/25 10:59:27;;;;;;;0.40;0.20;;;18.50;66.50;;;17.11;48.13;99177.06;10304385;28;96593;-81
2022/04/25 11:04:31;;;;;;;0.45;0.25;;;18.50;67.00;;;17.02;47.93;99189.19;10334262;28;96579;-81
2022/04/25 11:09:39;;;;;;;0.10;0.10;;;18.40;66.60;;;17.12;49.12;99198.28;10317203;28;96530;-81
2022/04/25 11:15:02;;;;;;;0.93;0.30;;;18.40;68.10;;;17.23;48.53;99196.66;10321231;28;96548;-80
2022/04/25 11:20:06;;;;;;;0.57;0.20;;;18.50;67.20;;;16.85;47.66;99216.75;10294501;28;98396;-79
2022/04/25 11:25:27;;;;;;;2.63;0.15;;;18.30;66.10;;;16.54;48.70;99208.94;10292471;28;96667;-80
2022/04/25 11:30:30;;;;;;;;;;;18.00;67.80;;;16.57;49.89;99224.59;10294158;28;96631;-80
2022/04/25 11:35:33;;;;;;;0.28;0.20;;;17.90;68.60;;;17.63;48.75;99214.66;10333124;28;96472;-81
2022/04/25 11:40:38;;;;;;;0.28;0.20;;;18.50;69.60;;;18.08;46.48;99230.09;10332409;28;98420;-81
2022/04/25 11:45:41;;;;;;;0.35;0.10;;;19.00;66.60;;;17.69;45.95;99227.13;10315318;28;96712;-80
2022/04/25 11:50:50;;;;;;;0.50;0.30;;;18.90;64.80;;;17.63;48.03;99245.03;10291142;28;96480;-81
2022/04/25 11:55:53;;;;;;;0.63;0.50;;;18.90;66.60;;;17.97;46.70;99253.25;10326114;28;96672;-82
2022/04/25 12:00:56;;;;;;;0.85;0.40;;;19.10;65.60;;;17.76;47.85;99254.75;10330476;28;96979;-81
2022/04/25 12:06:13;;;;;;;0.38;0.30;;;19.00;66.20;;;18.27;48.52;99242.28;10326749;28;96456;-80
2022/04/25 12:16:37;;;;;;;0.73;0.45;;;19.60;64.70;;;18.19;45.35;99248.03;10307145;28;97592;-81
2022/04/25 12:21:47;;;;;;;0.80;0.50;;;19.30;63.80;;;17.88;46.63;99258.22;10322063;28;96777;-80
2022/04/25 12:26:50;;;;;;;0.40;0.30;;;19.10;65.30;;;17.91;47.77;99252.34;10343222;28;96608;-80
2022/04/25 12:31:54;;;;;;;0.43;0.30;;;19.10;65.80;;;17.91;46.41;99251.53;10310978;28;97256;-80
2022/04/25 12:37:00;;;;;;;1.00;0.50;;;19.10;63.70;;;17.95;45.53;99249.19;10297980;28;96368;-80
2022/04/25 12:42:04;;;;;;;1.27;0.40;;;19.10;63.50;;;18.12;45.40;99248.19;10297931;28;96645;-82
2022/04/25 12:47:10;;;;;;;0.63;0.35;;;19.40;63.40;;;18.29;45.22;99252.78;10298528;28;96545;-81
2022/04/25 12:52:16;;;;;;;0.25;0.22;;;19.60;61.80;;;18.45;44.78;99260.88;10305297;28;96656;-81
2022/04/25 12:57:24;;;;;;;1.57;0.50;;;19.80;61.80;;;18.52;42.03;99259.91;10336444;28;96495;-83
2022/04/25 13:02:32;;;;;;;0.60;0.38;;;20.00;57.90;;;18.36;42.35;99256.97;10309092;28;96639;-83
2022/04/25 13:07:42;;;;;;;0.40;0.25;;;19.90;58.20;;;18.87;41.40;99257.88;10325351;28;97624;-83
2022/04/25 13:12:50;;;;;;;0.27;0.20;;;20.40;57.80;;;19.35;39.29;99253.75;10305438;28;98286;-86
2022/04/25 13:17:54;;;;;;;3.38;2.40;;;21.10;54.40;;;19.06;40.25;99246.84;10297374;28;96538;-82
2022/04/25 13:22:59;;;;;;;0.65;0.38;;;20.80;55.70;;;18.91;40.42;99253.63;10304597;28;96896;-86
2022/04/25 13:28:02;;;;;;;1.50;0.80;;;20.60;55.30;;;18.54;40.18;99244.38;10308026;28;98464;-84
2022/04/25 13:33:05;;;;;;;0.40;0.30;;;20.30;55.10;;;18.11;41.71;99251.09;10330608;28;97098;-88
2022/04/25 13:38:08;;;;;;;0.73;0.40;;;19.80;56.20;;;17.81;42.72;99254.84;10325968;28;96537;-83
2022/04/25 13:43:11;;;;;;;0.50;0.30;;;19.40;57.50;;;17.60;43.55;99267.00;10312700;28;97678;-85
2022/04/25 13:48:16;;;;;;;0.70;0.40;;;19.10;58.90;;;17.74;44.02;99261.38;10323710;28;97271;-84
2022/04/25 13:53:20;;;;;;;0.82;0.50;;;19.20;59.30;;;17.59;44.00;99269.94;10300887;28;96883;-86
2022/04/25 13:58:24;;;;;;;1.60;0.50;;;19.00;59.40;;;17.31;45.62;99268.78;10310020;28;98559;-83
2022/04/25 14:03:27;;;;;;;0.45;0.40;;;18.80;60.70;;;17.50;45.68;99277.50;10348802;28;96509;-85
2022/04/25 14:08:31;;;;;;;1.98;0.50;;;18.90;61.50;;;17.86;44.37;99271.06;10331016;28;96650;-83
2022/04/25 14:13:34;;;;;;;0.60;0.52;;;19.20;60.20;;;17.98;43.88;99278.28;10348709;28;98267;-86
2022/04/25 14:18:36;;;;;;;0.60;0.40;;;19.30;59.70;;;18.60;42.40;99271.13;10324617;28;97616;-86
2022/04/25 14:23:40;;;;;;;0.90;0.40;;;19.80;58.00;;;19.39;41.03;99268.34;10345721;28;96565;-85
2022/04/25 14:28:44;;;;;;;1.08;0.50;;;20.60;56.80;;;20.01;39.00;99270.78;10323870;28;96721;-86
2022/04/25 14:34:08;;;;;;;0.90;0.50;;;21.30;54.60;;;19.90;39.94;99279.81;10315048;28;96530;-84
2022/04/25 14:39:11;;;;;;;0.70;0.50;;;21.30;55.40;;;20.45;38.53;99280.69;10297736;28;97449;-85
2022/04/25 14:44:14;;;;;;;2.08;0.40;;;21.80;54.20;;;20.95;38.11;99280.38;10310323;28;96629;-85
2022/04/25 14:54:20;;;;;;;0.70;0.50;;;22.20;52.90;;;21.10;35.65;99282.38;10332816;28;98506;-88
2022/04/25 14:54:40;;;;;;;1.55;0.55;;;22.50;50.70;;;21.12;36.74;99272.16;10334049;28;96640;-86
2022/04/25 14:59:44;;;;;;;1.20;0.68;;;22.50;51.10;;;21.30;36.05;99268.25;10309890;28;96530;-88
2022/04/25 15:04:46;;;;;;;1.00;0.60;;;22.70;50.90;;;21.13;35.36;99279.19;10340206;28;97527;-89
2022/04/25 15:09:49;;;;;;;1.08;0.80;;;22.60;50.10;;;20.22;36.25;99277.25;10312381;28;96624;-85
2022/04/25 15:14:53;;;;;;;2.60;0.70;;;21.90;50.10;;;19.25;38.34;99293.97;10326715;28;98444;-86
2022/04/25 15:19:56;;;;;;;2.03;0.73;;;21.00;51.60;;;18.67;39.17;99297.91;10323691;28;96543;-85
2022/04/25 15:24:58;;;;;;;1.30;0.73;;;20.30;52.50;;;18.36;39.40;99291.94;10333115;28;96489;-86
2022/04/25 15:30:03;;;;;;;1.02;0.70;;;19.90;52.90;;;18.07;39.89;99301.03;10314214;28;96594;-91
2022/04/25 15:35:07;;;;;;;1.05;0.90;;;19.60;53.80;;;17.84;40.28;99302.72;10326016;28;97297;-85
2022/04/25 15:40:11;;;;;;;1.40;0.93;;;19.30;54.00;;;17.51;40.83;99318.63;10330070;28;97391;-88
2022/04/25 15:45:14;;;;;;;1.65;1.00;;;19.00;54.50;;;17.17;41.48;99314.88;10300161;28;96629;-87
2022/04/25 15:50:17;;;;;;;1.65;1.08;;;18.60;55.10;;;16.91;41.61;99321.47;10305737;28;96561;-88
2022/04/25 16:00:43;;;;;;;2.50;1.40;;;18.10;56.20;;;16.65;44.64;99331.53;10331201;28;98796;-84
2022/04/25 16:05:49;;;;;;;2.53;1.60;;;18.00;59.30;;;17.12;46.08;99320.94;10324280;28;97851;-85
2022/04/25 16:10:53;;;;;;;1.85;1.10;;;18.30;60.10;;;17.77;46.21;99325.41;10324561;28;98283;-84
2022/04/25 16:15:57;;;;;;;1.20;0.90;;;18.80;61.60;;;18.14;45.46;99339.38;10329546;28;96530;-84
2022/04/25 16:21:00;;;;;;;5.20;1.50;;;19.20;61.00;;;18.06;44.91;99350.50;10333964;28;97022;-84
2022/04/25 16:26:08;;;;;;;14.43;7.75;;;19.20;59.90;;;17.85;45.53;99363.47;10309045;28;96948;-85
2022/04/25 16:31:11;;;;;;;2.67;1.70;;;19.10;60.60;;;17.36;46.41;99354.81;10322285;28;97317;-82
2022/04/25 16:36:14;;;;;;;1.63;1.20;;;18.70;61.20;;;16.98;46.95;99367.84;10329197;28;96823;-84
2022/04/25 16:41:17;;;;;;;2.38;1.65;;;18.30;61.50;;;16.61;47.67;99362.53;10323047;28;96984;-84
2022/04/25 16:46:20;;;;;;;2.25;1.55;;;18.00;62.30;;;16.28;48.21;99373.69;10311101;28;96598;-83
2022/04/25 16:51:23;;;;;;;2.95;2.00;;;17.70;62.70;;;16.01;48.84;99379.38;10344677;28;96664;-83
2022/04/25 16:56:26;;;;;;;2.10;1.65;;;17.40;63.40;;;15.77;49.69;99386.44;10329141;28;98720;-84
2022/04/25 17:01:29;;;;;;;1.70;1.23;;;17.20;64.30;;;15.50;50.22;99396.53;10305073;28;96716;-83
2022/04/25 17:06:33;;;;;;;2.22;1.48;;;17.00;64.50;;;15.24;50.95;99394.91;10369399;28;96522;-83
2022/04/25 17:11:36;;;;;;;2.88;1.85;;;16.80;65.40;;;15.03;52.09;99405.94;10308739;28;97352;-85
2022/04/25 17:16:39;;;;;;;3.45;1.73;;;16.60;66.00;;;14.80;52.36;99400.31;10318272;28;96634;-85
2022/04/25 17:21:42;;;;;;;3.22;2.13;;;16.30;66.70;;;14.61;53.52;99415.44;10332716;28;97074;-85
2022/04/25 17:26:45;;;;;;;3.85;2.58;;;16.20;67.00;;;14.42;53.53;99407.25;10309744;28;96914;-85
